createdAt,value
2023-10-14T00:00:17.000Z,1.9
2023-10-14T00:01:27.386Z,2
2023-10-14T00:02:37.000Z,1.9
2023-10-14T00:03:47.000Z,2
2023-10-14T00:04:56.768Z,1.8
2023-10-14T00:06:07.000Z,2
2023-10-14T00:07:17.000Z,1.9
2023-10-14T00:08:27.139Z,2
2023-10-14T00:09:37.271Z,2.2
2023-10-14T00:10:47.000Z,1.8
2023-10-14T00:11:57.513Z,1.7
2023-10-14T00:13:07.642Z,2
2023-10-14T00:14:18.000Z,1.7
2023-10-14T00:15:28.000Z,2
2023-10-14T00:16:38.008Z,1.9
2023-10-14T00:17:48.143Z,1.7
2023-10-14T00:18:58.000Z,2
2023-10-14T00:20:07.400Z,1.9
2023-10-14T00:21:17.000Z,1.9
2023-10-14T00:22:27.650Z,1.9
2023-10-14T00:23:37.776Z,1.7
2023-10-14T00:24:47.892Z,2.2
2023-10-14T00:25:58.519Z,1.8
2023-10-14T00:27:08.148Z,1.9
2023-10-14T00:28:18.762Z,1.9
2023-10-14T00:29:28.391Z,2
2023-10-14T00:30:38.000Z,1.9
2023-10-14T00:31:48.637Z,1.9
2023-10-14T00:32:59.000Z,1.9
2023-10-14T00:34:08.885Z,1.7
2023-10-14T00:35:18.000Z,1.6
2023-10-14T00:36:28.157Z,1.9
2023-10-14T00:37:38.000Z,1.9
2023-10-14T00:38:48.402Z,1.9
2023-10-14T00:39:58.000Z,1.8
2023-10-14T00:41:08.644Z,1.9
2023-10-14T00:42:18.778Z,1.8
2023-10-14T00:43:29.000Z,1.8
2023-10-14T00:44:39.016Z,1.7
2023-10-14T00:45:49.149Z,2
2023-10-14T00:46:59.000Z,1.8
2023-10-14T00:48:09.397Z,1.7
2023-10-14T00:49:19.000Z,1.9
2023-10-14T00:50:28.652Z,1.6
2023-10-14T00:51:39.284Z,1.7
2023-10-14T00:52:48.903Z,1.6
2023-10-14T00:53:59.028Z,1.7
2023-10-14T00:55:09.000Z,1.8
2023-10-14T00:56:19.286Z,1.7
2023-10-14T00:57:29.406Z,1.7
2023-10-14T00:58:39.527Z,1.6
2023-10-14T00:59:49.651Z,1.7
2023-10-14T01:01:00.000Z,1.7
2023-10-14T01:02:10.000Z,1.8
2023-10-14T01:03:20.000Z,1.8
2023-10-14T01:04:30.000Z,1.7
2023-10-14T01:05:39.000Z,1.6
2023-10-14T01:06:49.000Z,1.7
2023-10-14T01:07:59.000Z,1.6
2023-10-14T01:09:09.000Z,1.7
2023-10-14T01:10:20.000Z,1.6
2023-10-14T01:11:30.000Z,1.7
2023-10-14T01:12:39.000Z,2
2023-10-14T01:13:49.000Z,1.8
2023-10-14T01:14:59.803Z,1.9
2023-10-14T01:16:09.000Z,1.6
2023-10-14T01:17:19.000Z,1.6
2023-10-14T01:18:29.925Z,1.7
2023-10-14T01:19:40.057Z,1.8
2023-10-14T01:20:50.000Z,1.4
2023-10-14T01:22:00.000Z,1.6
2023-10-14T01:23:10.431Z,1.6
2023-10-14T01:24:20.548Z,1.7
2023-10-14T01:25:30.000Z,1.5
2023-10-14T01:26:40.803Z,1.6
2023-10-14T01:27:49.944Z,1.6
2023-10-14T01:29:00.057Z,1.5
2023-10-14T01:30:10.189Z,1.6
2023-10-14T01:31:20.307Z,1.7
2023-10-14T01:32:30.433Z,1.7
2023-10-14T01:33:40.000Z,1.4
2023-10-14T01:34:50.681Z,1.4
2023-10-14T01:36:00.000Z,1.5
2023-10-14T01:37:10.933Z,1.7
2023-10-14T01:38:21.000Z,1.3
2023-10-14T01:39:31.179Z,1.4
2023-10-14T01:40:41.301Z,1.4
2023-10-14T01:41:51.433Z,1.8
2023-10-14T01:43:00.000Z,1.7
2023-10-14T01:44:10.696Z,1.7
2023-10-14T01:45:20.815Z,1.6
2023-10-14T01:46:30.938Z,1.4
2023-10-14T01:47:41.064Z,1.6
2023-10-14T01:48:51.188Z,1.6
2023-10-14T01:50:01.306Z,1.7
2023-10-14T01:51:11.436Z,1.6
2023-10-14T01:52:21.557Z,1.4
2023-10-14T01:53:31.680Z,1.3
2023-10-14T01:54:41.817Z,1.4
2023-10-14T01:55:51.944Z,1.3
2023-10-14T01:57:02.051Z,1.3
2023-10-14T01:58:11.000Z,1.5
2023-10-14T01:59:21.317Z,1.6
2023-10-14T02:00:31.000Z,1.3
2023-10-14T02:01:41.569Z,1.4
2023-10-14T02:02:51.000Z,1.3
2023-10-14T02:04:01.810Z,1.5
2023-10-14T02:05:11.943Z,1.8
2023-10-14T02:06:22.070Z,1.7
2023-10-14T02:07:32.190Z,1.4
2023-10-14T02:08:42.315Z,1.4
2023-10-14T02:09:52.000Z,1.2
2023-10-14T02:11:02.000Z,1.2
2023-10-14T02:12:12.682Z,1.3
2023-10-14T02:13:21.000Z,1.5
2023-10-14T02:14:31.949Z,1.3
2023-10-14T02:15:42.319Z,1.3
2023-10-14T02:16:52.201Z,1.2
2023-10-14T02:18:02.317Z,1.5
2023-10-14T02:19:12.441Z,1.6
2023-10-14T02:20:22.000Z,1.4
2023-10-14T02:21:32.000Z,1.6
2023-10-14T02:22:42.000Z,1.5
2023-10-14T02:23:52.945Z,1.3
2023-10-14T02:25:03.061Z,1.4
2023-10-14T02:26:13.181Z,1.3
2023-10-14T02:27:23.317Z,1.3
2023-10-14T02:28:32.000Z,1.3
2023-10-14T02:29:42.000Z,1.4
2023-10-14T02:30:52.704Z,1.5
2023-10-14T02:32:02.821Z,1.2
2023-10-14T02:33:12.000Z,1.2
2023-10-14T02:34:23.000Z,1.5
2023-10-14T02:35:33.000Z,1.2
2023-10-14T02:36:43.314Z,1.4
2023-10-14T02:37:53.439Z,1.4
2023-10-14T02:39:03.561Z,1.5
2023-10-14T02:40:13.697Z,1.3
2023-10-14T02:41:23.808Z,1.3
2023-10-14T02:42:33.933Z,1.4
2023-10-14T02:43:43.075Z,1.1
2023-10-14T02:44:53.207Z,1.5
2023-10-14T02:46:03.334Z,1.3
2023-10-14T02:47:13.449Z,1.1
2023-10-14T02:48:23.579Z,1.4
2023-10-14T02:49:33.700Z,1.4
2023-10-14T02:50:43.821Z,1.3
2023-10-14T02:51:53.000Z,1.3
2023-10-14T02:53:04.000Z,1.6
2023-10-14T02:54:14.194Z,1.2
2023-10-14T02:55:24.315Z,1.5
2023-10-14T02:56:34.446Z,1.6
2023-10-14T02:57:44.572Z,1.3
2023-10-14T02:58:53.000Z,1.2
2023-10-14T03:00:03.000Z,1.3
2023-10-14T03:01:13.949Z,1.3
2023-10-14T03:02:24.078Z,1.2
2023-10-14T03:03:34.000Z,1.2
2023-10-14T03:04:44.322Z,1.3
2023-10-14T03:05:54.462Z,1.5
2023-10-14T03:07:04.000Z,1.2
2023-10-14T03:08:14.000Z,1.3
2023-10-14T03:09:24.000Z,1.1
2023-10-14T03:10:34.000Z,1.3
2023-10-14T03:11:45.000Z,1.1
2023-10-14T03:12:55.196Z,1.2
2023-10-14T03:14:04.332Z,1.2
2023-10-14T03:15:14.461Z,1.3
2023-10-14T03:16:24.000Z,1.1
2023-10-14T03:17:34.000Z,1.3
2023-10-14T03:18:44.000Z,1.1
2023-10-14T03:19:54.000Z,1.2
2023-10-14T03:21:05.000Z,1.3
2023-10-14T03:22:15.198Z,1.1
2023-10-14T03:23:25.323Z,1.3
2023-10-14T03:24:35.448Z,1.2
2023-10-14T03:25:45.571Z,1.2
2023-10-14T03:26:55.000Z,1.3
2023-10-14T03:28:05.821Z,1.1
2023-10-14T03:29:14.968Z,1.3
2023-10-14T03:30:25.000Z,1
2023-10-14T03:31:35.000Z,1
2023-10-14T03:32:45.000Z,1.2
2023-10-14T03:33:55.000Z,1.3
2023-10-14T03:35:05.587Z,1.2
2023-10-14T03:36:15.000Z,1.2
2023-10-14T03:37:25.826Z,1.2
2023-10-14T03:38:35.000Z,1.1
2023-10-14T03:39:46.000Z,1.5
2023-10-14T03:40:56.000Z,1
2023-10-14T03:42:06.000Z,1.3
2023-10-14T03:43:16.450Z,1.2
2023-10-14T03:44:25.591Z,1.2
2023-10-14T03:45:35.000Z,1.2
2023-10-14T03:46:45.839Z,1.1
2023-10-14T03:47:55.963Z,1.1
2023-10-14T03:49:06.083Z,0.8
2023-10-14T03:50:16.213Z,1.1
2023-10-14T03:51:26.000Z,1.2
2023-10-14T03:52:36.471Z,1.2
2023-10-14T03:53:46.580Z,1.2
2023-10-14T03:54:56.000Z,1.4
2023-10-14T03:56:06.825Z,1.1
2023-10-14T03:57:16.954Z,1.1
2023-10-14T03:58:27.000Z,1
2023-10-14T03:59:36.225Z,1.1
2023-10-14T04:00:46.345Z,1.1
2023-10-14T04:01:56.473Z,1.1
2023-10-14T04:03:06.000Z,1.1
2023-10-14T04:04:16.000Z,1.1
2023-10-14T04:05:26.845Z,1.1
2023-10-14T04:06:37.000Z,1
2023-10-14T04:07:47.083Z,1.1
2023-10-14T04:08:57.000Z,0.9
2023-10-14T04:10:07.337Z,0.9
2023-10-14T04:11:17.454Z,1
2023-10-14T04:12:27.853Z,1.4
2023-10-14T04:13:37.000Z,1
2023-10-14T04:14:46.843Z,1.1
2023-10-14T04:15:56.970Z,1.1
2023-10-14T04:17:07.000Z,1.1
2023-10-14T04:18:17.214Z,1.1
2023-10-14T04:19:27.337Z,1.1
2023-10-14T04:20:37.000Z,1
2023-10-14T04:21:47.590Z,0.8
2023-10-14T04:22:57.709Z,1.1
2023-10-14T04:24:07.836Z,1.5
2023-10-14T04:25:17.959Z,1.2
2023-10-14T04:26:28.084Z,1
2023-10-14T04:27:38.220Z,0.9
2023-10-14T04:28:48.334Z,1.1
2023-10-14T04:29:57.468Z,1.2
2023-10-14T04:31:07.000Z,1.2
2023-10-14T04:32:17.000Z,1.1
2023-10-14T04:33:27.843Z,1
2023-10-14T04:34:37.967Z,1.1
2023-10-14T04:35:48.000Z,1
2023-10-14T04:36:58.219Z,1
2023-10-14T04:38:08.342Z,1.1
2023-10-14T04:39:18.465Z,0.9
2023-10-14T04:40:28.000Z,1.1
2023-10-14T04:41:38.711Z,1.2
2023-10-14T04:42:48.840Z,1.1
2023-10-14T04:43:58.959Z,1.1
2023-10-14T04:45:08.386Z,1.1
2023-10-14T04:46:18.000Z,1
2023-10-14T04:47:28.000Z,1
2023-10-14T04:48:38.000Z,1
2023-10-14T04:49:48.000Z,0.9
2023-10-14T04:50:58.718Z,1
2023-10-14T04:52:08.000Z,1.1
2023-10-14T04:53:19.000Z,1.1
2023-10-14T04:54:29.000Z,1
2023-10-14T04:55:39.216Z,1
2023-10-14T04:56:49.000Z,0.9
2023-10-14T04:57:59.000Z,1
2023-10-14T04:59:09.000Z,1
2023-10-14T05:00:18.000Z,1
2023-10-14T05:01:28.000Z,1
2023-10-14T05:02:38.980Z,1.1
2023-10-14T05:03:49.104Z,1
2023-10-14T05:04:59.000Z,1.1
2023-10-14T05:06:09.000Z,1.2
2023-10-14T05:07:18.487Z,1.1
2023-10-14T05:08:28.000Z,1
2023-10-14T05:09:38.000Z,1
2023-10-14T05:10:48.863Z,1
2023-10-14T05:11:58.982Z,0.9
2023-10-14T05:13:09.000Z,1
2023-10-14T05:14:19.233Z,1.1
2023-10-14T05:15:29.000Z,0.8
2023-10-14T05:16:39.000Z,0.9
2023-10-14T05:17:49.604Z,1
2023-10-14T05:18:59.739Z,1.1
2023-10-14T05:20:09.855Z,1.1
2023-10-14T05:21:20.000Z,1
2023-10-14T05:22:29.000Z,0.9
2023-10-14T05:23:39.238Z,0.9
2023-10-14T05:24:49.367Z,0.8
2023-10-14T05:25:59.000Z,0.9
2023-10-14T05:27:09.000Z,1
2023-10-14T05:28:19.735Z,0.9
2023-10-14T05:29:29.000Z,1
2023-10-14T05:30:40.000Z,1
2023-10-14T05:31:50.000Z,1.1
2023-10-14T05:33:00.000Z,0.8
2023-10-14T05:34:10.356Z,0.8
2023-10-14T05:35:20.481Z,0.9
2023-10-14T05:36:30.000Z,1
2023-10-14T05:37:39.746Z,1
2023-10-14T05:38:49.000Z,0.9
2023-10-14T05:40:00.006Z,1.1
2023-10-14T05:41:10.122Z,0.9
2023-10-14T05:42:20.000Z,1
2023-10-14T05:43:30.000Z,0.9
2023-10-14T05:44:40.000Z,1
2023-10-14T05:45:50.610Z,0.9
2023-10-14T05:47:00.735Z,0.9
2023-10-14T05:48:10.858Z,1.1
2023-10-14T05:49:21.000Z,0.8
2023-10-14T05:50:31.000Z,1
2023-10-14T05:51:41.230Z,1
2023-10-14T05:52:50.374Z,1
2023-10-14T05:54:00.500Z,1.1
2023-10-14T05:55:10.000Z,1.1
2023-10-14T05:56:20.000Z,1
2023-10-14T05:57:30.871Z,0.9
2023-10-14T05:58:40.994Z,0.8
2023-10-14T05:59:51.000Z,0.8
2023-10-14T06:01:01.237Z,0.9
2023-10-14T06:02:11.363Z,1
2023-10-14T06:03:21.000Z,0.9
2023-10-14T06:04:31.619Z,0.9
2023-10-14T06:05:41.738Z,0.8
2023-10-14T06:06:51.000Z,1
2023-10-14T06:08:01.000Z,1
2023-10-14T06:09:11.000Z,1
2023-10-14T06:10:21.244Z,0.9
2023-10-14T06:11:31.375Z,0.9
2023-10-14T06:12:41.000Z,0.9
2023-10-14T06:13:51.622Z,1.1
2023-10-14T06:15:01.755Z,0.8
2023-10-14T06:16:11.000Z,1
2023-10-14T06:17:22.000Z,1.1
2023-10-14T06:18:32.000Z,0.8
2023-10-14T06:19:42.239Z,0.8
2023-10-14T06:20:52.000Z,1
2023-10-14T06:22:02.491Z,0.9
2023-10-14T06:23:11.624Z,0.9
2023-10-14T06:24:21.751Z,1
2023-10-14T06:25:31.870Z,0.8
2023-10-14T06:26:42.001Z,0.9
2023-10-14T06:27:52.124Z,0.9
2023-10-14T06:29:02.000Z,1
2023-10-14T06:30:12.000Z,0.8
2023-10-14T06:31:22.501Z,0.9
2023-10-14T06:32:32.000Z,0.9
2023-10-14T06:33:42.000Z,1
2023-10-14T06:34:52.863Z,0.8
2023-10-14T06:36:02.992Z,0.9
2023-10-14T06:37:13.000Z,0.9
2023-10-14T06:38:22.257Z,0.8
2023-10-14T06:39:32.374Z,0.7
2023-10-14T06:40:42.503Z,1.1
2023-10-14T06:41:52.933Z,1.2
2023-10-14T06:43:02.752Z,1.1
2023-10-14T06:44:12.000Z,0.8
2023-10-14T06:45:22.997Z,0.8
2023-10-14T06:46:33.000Z,0.9
2023-10-14T06:47:43.249Z,0.8
2023-10-14T06:48:53.000Z,0.9
2023-10-14T06:50:03.502Z,0.7
2023-10-14T06:51:13.627Z,0.9
2023-10-14T06:52:23.000Z,0.8
2023-10-14T06:53:32.000Z,0.7
2023-10-14T06:54:43.014Z,0.8
2023-10-14T06:55:53.127Z,0.7
2023-10-14T06:57:03.259Z,0.9
2023-10-14T06:58:13.000Z,1
2023-10-14T06:59:23.504Z,0.7
2023-10-14T07:00:33.000Z,0.8
2023-10-14T07:01:43.752Z,0.9
2023-10-14T07:02:53.884Z,0.9
2023-10-14T07:04:04.008Z,0.7
2023-10-14T07:05:14.126Z,0.7
2023-10-14T07:06:24.249Z,0.9
2023-10-14T07:07:34.000Z,0.8
2023-10-14T07:08:43.000Z,1
2023-10-14T07:09:53.000Z,0.7
2023-10-14T07:11:03.766Z,0.8
2023-10-14T07:12:13.000Z,0.9
2023-10-14T07:13:24.008Z,0.8
2023-10-14T07:14:34.135Z,1.1
2023-10-14T07:15:44.255Z,0.8
2023-10-14T07:16:54.000Z,0.8
2023-10-14T07:18:04.516Z,0.6
2023-10-14T07:19:14.623Z,1
2023-10-14T07:20:24.757Z,0.9
2023-10-14T07:21:34.881Z,0.8
2023-10-14T07:22:45.004Z,0.8
2023-10-14T07:23:54.145Z,0.8
2023-10-14T07:25:04.265Z,0.7
2023-10-14T07:26:14.000Z,0.8
2023-10-14T07:27:24.000Z,0.6
2023-10-14T07:28:34.638Z,0.8
2023-10-14T07:29:44.764Z,1
2023-10-14T07:30:54.000Z,0.8
2023-10-14T07:32:05.000Z,0.7
2023-10-14T07:33:15.127Z,1
2023-10-14T07:34:25.259Z,0.6
2023-10-14T07:35:35.378Z,0.8
2023-10-14T07:36:45.507Z,0.9
2023-10-14T07:37:55.626Z,0.8
2023-10-14T07:39:04.772Z,0.6
2023-10-14T07:40:14.893Z,0.6
2023-10-14T07:41:25.000Z,0.7
2023-10-14T07:42:35.000Z,0.7
2023-10-14T07:43:45.262Z,0.7
2023-10-14T07:44:55.386Z,0.8
2023-10-14T07:46:05.508Z,0.9
2023-10-14T07:47:15.634Z,0.7
2023-10-14T07:48:25.759Z,1
2023-10-14T07:49:35.000Z,0.7
2023-10-14T07:50:46.010Z,0.7
2023-10-14T07:51:56.000Z,0.8
2023-10-14T07:53:06.000Z,0.7
2023-10-14T07:54:15.402Z,0.8
2023-10-14T07:55:25.523Z,0.7
2023-10-14T07:56:35.640Z,0.9
2023-10-14T07:57:45.773Z,0.9
2023-10-14T07:58:55.892Z,0.8
2023-10-14T08:00:06.028Z,0.9
2023-10-14T08:01:16.000Z,0.9
2023-10-14T08:02:26.264Z,0.8
2023-10-14T08:03:36.390Z,0.8
2023-10-14T08:04:46.515Z,0.7
2023-10-14T08:05:56.635Z,0.8
2023-10-14T08:07:06.760Z,0.8
2023-10-14T08:08:16.893Z,0.8
2023-10-14T08:09:26.000Z,0.7
2023-10-14T08:10:36.151Z,1
2023-10-14T08:11:46.000Z,0.8
2023-10-14T08:12:56.000Z,0.8
2023-10-14T08:14:06.000Z,1.1
2023-10-14T08:15:16.000Z,0.7
2023-10-14T08:16:26.000Z,0.8
2023-10-14T08:17:36.000Z,0.7
2023-10-14T08:18:47.016Z,0.7
2023-10-14T08:19:57.000Z,0.7
2023-10-14T08:21:07.000Z,0.8
2023-10-14T08:22:17.000Z,0.9
2023-10-14T08:23:27.523Z,0.7
2023-10-14T08:24:36.650Z,0.7
2023-10-14T08:25:46.780Z,0.7
2023-10-14T08:26:56.902Z,0.7
2023-10-14T08:28:07.000Z,0.7
2023-10-14T08:29:17.000Z,0.7
2023-10-14T08:30:27.282Z,0.7
2023-10-14T08:31:37.000Z,0.8
2023-10-14T08:32:47.000Z,0.8
2023-10-14T08:33:57.653Z,0.7
2023-10-14T08:35:07.775Z,0.8
2023-10-14T08:36:17.000Z,0.8
2023-10-14T08:37:28.027Z,0.7
2023-10-14T08:38:38.000Z,0.9
2023-10-14T08:39:47.283Z,0.8
2023-10-14T08:40:57.412Z,0.6
2023-10-14T08:42:07.000Z,0.8
2023-10-14T08:43:17.000Z,0.6
2023-10-14T08:44:27.782Z,0.8
2023-10-14T08:45:37.914Z,0.7
2023-10-14T08:46:48.030Z,0.6
2023-10-14T08:47:58.159Z,0.8
2023-10-14T08:49:08.278Z,0.8
2023-10-14T08:50:18.396Z,0.7
2023-10-14T08:51:28.524Z,0.9
2023-10-14T08:52:38.656Z,0.9
2023-10-14T08:53:48.775Z,0.8
2023-10-14T08:54:58.000Z,0.8
2023-10-14T08:56:08.038Z,0.7
2023-10-14T08:57:18.155Z,0.9
2023-10-14T08:58:28.289Z,0.7
2023-10-14T08:59:38.000Z,0.7
2023-10-14T09:00:48.530Z,0.6
2023-10-14T09:01:57.000Z,0.8
2023-10-14T09:03:07.799Z,0.7
2023-10-14T09:04:17.917Z,0.8
2023-10-14T09:05:28.057Z,0.8
2023-10-14T09:06:38.169Z,1
2023-10-14T09:07:48.295Z,0.7
2023-10-14T09:08:58.420Z,0.8
2023-10-14T09:10:08.545Z,0.7
2023-10-14T09:11:18.000Z,0.8
2023-10-14T09:12:28.784Z,0.6
2023-10-14T09:13:38.908Z,0.8
2023-10-14T09:14:49.000Z,0.8
2023-10-14T09:15:59.000Z,0.7
2023-10-14T09:17:08.302Z,0.9
2023-10-14T09:18:18.422Z,0.8
2023-10-14T09:19:28.000Z,1
2023-10-14T09:20:38.000Z,0.7
2023-10-14T09:21:48.000Z,0.7
2023-10-14T09:22:58.927Z,0.8
2023-10-14T09:24:09.040Z,0.8
2023-10-14T09:25:19.163Z,0.8
2023-10-14T09:26:29.300Z,0.8
2023-10-14T09:27:39.000Z,0.8
2023-10-14T09:28:49.000Z,0.8
2023-10-14T09:29:59.668Z,1.1
2023-10-14T09:31:09.000Z,0.9
2023-10-14T09:32:18.936Z,0.9
2023-10-14T09:33:29.000Z,0.7
2023-10-14T09:34:39.173Z,0.8
2023-10-14T09:35:49.310Z,0.9
2023-10-14T09:36:59.000Z,0.9
2023-10-14T09:38:09.000Z,1
2023-10-14T09:39:19.674Z,0.8
2023-10-14T09:40:29.793Z,1
2023-10-14T09:41:40.000Z,0.7
2023-10-14T09:42:50.038Z,0.8
2023-10-14T09:44:00.000Z,0.8
2023-10-14T09:45:10.295Z,0.9
2023-10-14T09:46:20.424Z,1
2023-10-14T09:47:29.556Z,0.7
2023-10-14T09:48:39.678Z,0.8
2023-10-14T09:49:49.000Z,0.9
2023-10-14T09:50:59.930Z,0.7
2023-10-14T09:52:10.060Z,0.8
2023-10-14T09:53:20.170Z,1
2023-10-14T09:54:30.299Z,1.2
2023-10-14T09:55:40.424Z,1
2023-10-14T09:56:50.551Z,0.9
2023-10-14T09:58:00.673Z,0.7
2023-10-14T09:59:10.799Z,0.9
2023-10-14T10:00:20.918Z,0.9
2023-10-14T10:01:31.000Z,0.8
2023-10-14T10:02:40.184Z,0.8
2023-10-14T10:03:50.318Z,0.9
2023-10-14T10:05:00.434Z,0.8
2023-10-14T10:06:10.560Z,0.8
2023-10-14T10:07:20.000Z,0.8
2023-10-14T10:08:30.800Z,0.9
2023-10-14T10:09:41.000Z,0.9
2023-10-14T10:10:51.057Z,0.8
2023-10-14T10:12:01.185Z,0.8
2023-10-14T10:13:11.000Z,1.1
2023-10-14T10:14:21.418Z,0.8
2023-10-14T10:15:31.554Z,0.8
2023-10-14T10:16:41.000Z,0.7
2023-10-14T10:17:50.000Z,0.9
2023-10-14T10:19:01.000Z,0.9
2023-10-14T10:20:11.000Z,0.8
2023-10-14T10:21:21.182Z,1
2023-10-14T10:22:31.311Z,1
2023-10-14T10:23:41.000Z,0.8
2023-10-14T10:24:51.568Z,0.8
2023-10-14T10:26:01.679Z,0.9
2023-10-14T10:27:11.809Z,0.9
2023-10-14T10:28:21.927Z,0.8
2023-10-14T10:29:32.049Z,0.9
2023-10-14T10:30:42.000Z,0.7
2023-10-14T10:31:52.312Z,1
2023-10-14T10:33:01.438Z,1.1
2023-10-14T10:34:11.564Z,0.9
2023-10-14T10:35:21.684Z,0.8
2023-10-14T10:36:31.000Z,0.9
2023-10-14T10:37:41.939Z,0.6
2023-10-14T10:38:52.064Z,0.9
2023-10-14T10:40:02.187Z,1
2023-10-14T10:41:12.307Z,1.1
2023-10-14T10:42:22.000Z,0.8
2023-10-14T10:43:32.552Z,0.8
2023-10-14T10:44:42.680Z,0.7
2023-10-14T10:45:52.809Z,0.9
2023-10-14T10:47:03.000Z,0.9
2023-10-14T10:48:12.066Z,1
2023-10-14T10:49:22.191Z,0.8
2023-10-14T10:50:32.327Z,0.9
2023-10-14T10:51:42.433Z,1.1
2023-10-14T10:52:52.565Z,0.8
2023-10-14T10:54:02.681Z,1.1
2023-10-14T10:55:12.810Z,1
2023-10-14T10:56:23.278Z,0.8
2023-10-14T10:57:33.059Z,0.9
2023-10-14T10:58:43.190Z,1
2023-10-14T10:59:53.000Z,0.9
2023-10-14T11:01:03.000Z,0.9
2023-10-14T11:02:13.000Z,1.3
2023-10-14T11:03:22.693Z,0.8
2023-10-14T11:04:32.000Z,0.9
2023-10-14T11:05:43.000Z,1
2023-10-14T11:06:53.000Z,1
2023-10-14T11:08:03.203Z,0.7
2023-10-14T11:09:13.000Z,1
2023-10-14T11:10:23.000Z,1
2023-10-14T11:11:33.565Z,0.9
2023-10-14T11:12:43.000Z,0.8
2023-10-14T11:13:53.807Z,0.8
2023-10-14T11:15:04.000Z,0.9
2023-10-14T11:16:14.000Z,0.9
2023-10-14T11:17:24.193Z,0.8
2023-10-14T11:18:33.320Z,0.9
2023-10-14T11:19:43.448Z,0.8
2023-10-14T11:20:53.580Z,0.8
2023-10-14T11:22:03.700Z,0.8
2023-10-14T11:23:13.830Z,0.8
2023-10-14T11:24:23.944Z,0.9
2023-10-14T11:25:34.067Z,1
2023-10-14T11:26:44.194Z,1
2023-10-14T11:27:54.327Z,0.8
2023-10-14T11:29:04.444Z,1
2023-10-14T11:30:14.576Z,1.1
2023-10-14T11:31:24.699Z,1
2023-10-14T11:32:34.812Z,0.8
2023-10-14T11:33:43.952Z,0.7
2023-10-14T11:34:54.079Z,0.9
2023-10-14T11:36:04.204Z,0.9
2023-10-14T11:37:14.329Z,0.8
2023-10-14T11:38:24.450Z,0.9
2023-10-14T11:39:34.576Z,1
2023-10-14T11:40:44.691Z,0.9
2023-10-14T11:41:54.830Z,0.9
2023-10-14T11:43:04.955Z,0.7
2023-10-14T11:44:15.075Z,1
2023-10-14T11:45:25.188Z,1.3
2023-10-14T11:46:35.322Z,1
2023-10-14T11:47:45.439Z,0.8
2023-10-14T11:48:54.576Z,1
2023-10-14T11:50:04.699Z,0.8
2023-10-14T11:51:14.831Z,0.8
2023-10-14T11:52:24.946Z,0.9
2023-10-14T11:53:35.076Z,1
2023-10-14T11:54:45.206Z,1.1
2023-10-14T11:55:55.325Z,0.9
2023-10-14T11:57:05.442Z,0.9
2023-10-14T11:58:15.582Z,0.9
2023-10-14T11:59:25.691Z,1.1
2023-10-14T12:00:35.826Z,0.8
2023-10-14T12:01:45.937Z,0.9
2023-10-14T12:02:56.080Z,0.9
2023-10-14T12:04:05.208Z,0.8
2023-10-14T12:05:15.331Z,1
2023-10-14T12:06:25.467Z,0.8
2023-10-14T12:07:35.589Z,0.8
2023-10-14T12:08:45.700Z,0.9
2023-10-14T12:09:55.838Z,1
2023-10-14T12:11:05.952Z,0.9
2023-10-14T12:12:16.077Z,0.9
2023-10-14T12:13:26.201Z,1
2023-10-14T12:14:36.335Z,0.7
2023-10-14T12:15:46.445Z,0.8
2023-10-14T12:16:56.576Z,0.8
2023-10-14T12:18:06.703Z,0.7
2023-10-14T12:19:15.836Z,0.8
2023-10-14T12:20:25.958Z,0.8
2023-10-14T12:21:36.087Z,0.8
2023-10-14T12:22:46.203Z,0.7
2023-10-14T12:23:56.329Z,1
2023-10-14T12:25:06.452Z,0.8
2023-10-14T12:26:16.581Z,0.9
2023-10-14T12:27:26.710Z,0.9
2023-10-14T12:28:36.839Z,0.8
2023-10-14T12:29:46.961Z,1
2023-10-14T12:30:57.084Z,1
2023-10-14T12:32:07.199Z,0.9
2023-10-14T12:33:17.333Z,0.9
2023-10-14T12:34:26.462Z,0.8
2023-10-14T12:35:36.595Z,0.9
2023-10-14T12:36:46.721Z,1
2023-10-14T12:37:56.833Z,0.7
2023-10-14T12:39:06.963Z,0.9
2023-10-14T12:40:17.080Z,1
2023-10-14T12:41:27.219Z,0.9
2023-10-14T12:42:37.342Z,0.9
2023-10-14T12:43:47.456Z,0.8
2023-10-14T12:44:57.583Z,1.1
2023-10-14T12:46:07.698Z,0.8
2023-10-14T12:47:17.838Z,1
2023-10-14T12:48:27.944Z,1.2
2023-10-14T12:49:37.100Z,0.8
2023-10-14T12:50:47.208Z,0.8
2023-10-14T12:51:57.335Z,1
2023-10-14T12:53:07.469Z,1.1
2023-10-14T12:54:17.580Z,0.9
2023-10-14T12:55:27.719Z,0.8
2023-10-14T12:56:36.869Z,0.9
2023-10-14T12:57:46.972Z,0.9
2023-10-14T12:58:57.097Z,1.2
2023-10-14T13:00:07.226Z,0.9
2023-10-14T13:01:17.353Z,1.1
2023-10-14T13:02:27.466Z,1.1
2023-10-14T13:03:37.593Z,1
2023-10-14T13:04:47.725Z,0.8
2023-10-14T13:05:57.850Z,1.2
2023-10-14T13:07:07.968Z,0.8
2023-10-14T13:08:18.087Z,1.1
2023-10-14T13:09:28.212Z,0.9
2023-10-14T13:10:38.338Z,0.8
2023-10-14T13:11:47.488Z,0.9
2023-10-14T13:12:57.597Z,0.9
2023-10-14T13:14:07.734Z,0.8
2023-10-14T13:15:17.844Z,0.9
2023-10-14T13:16:27.978Z,1.1
2023-10-14T13:17:38.110Z,0.8
2023-10-14T13:18:48.221Z,1
2023-10-14T13:19:58.339Z,1
2023-10-14T13:21:08.466Z,0.9
2023-10-14T13:22:18.591Z,0.9
2023-10-14T13:23:28.711Z,0.9
2023-10-14T13:24:38.840Z,1
2023-10-14T13:25:48.967Z,0.9
2023-10-14T13:26:58.116Z,1.6
2023-10-14T13:28:08.228Z,0.9
2023-10-14T13:29:18.364Z,1.1
2023-10-14T13:30:28.490Z,1
2023-10-14T13:31:38.597Z,0.9
2023-10-14T13:32:48.733Z,1
2023-10-14T13:33:58.853Z,1
2023-10-14T13:35:08.981Z,1.1
2023-10-14T13:36:19.092Z,1
2023-10-14T13:37:29.220Z,0.8
2023-10-14T13:38:39.350Z,0.8
2023-10-14T13:39:49.465Z,1
2023-10-14T13:40:59.602Z,1.1
2023-10-14T13:42:08.734Z,0.9
2023-10-14T13:43:18.868Z,1
2023-10-14T13:44:28.980Z,1
2023-10-14T13:45:39.116Z,1.1
2023-10-14T13:46:49.228Z,0.9
2023-10-14T13:47:59.365Z,1
2023-10-14T13:49:09.473Z,1
2023-10-14T13:50:19.600Z,0.9
2023-10-14T13:51:29.720Z,1
2023-10-14T13:52:39.849Z,1.1
2023-10-14T13:53:49.977Z,0.9
2023-10-14T13:55:00.105Z,1
2023-10-14T13:56:10.216Z,0.9
2023-10-14T13:57:19.367Z,1.2
2023-10-14T13:58:29.483Z,0.8
2023-10-14T13:59:39.602Z,0.9
2023-10-14T14:00:49.733Z,1.2
2023-10-14T14:01:59.860Z,0.9
2023-10-14T14:03:09.981Z,0.8
2023-10-14T14:04:20.110Z,0.9
2023-10-14T14:05:30.223Z,1.2
2023-10-14T14:06:40.363Z,1
2023-10-14T14:07:50.473Z,0.9
2023-10-14T14:09:00.611Z,1.1
2023-10-14T14:10:10.732Z,0.9
2023-10-14T14:11:20.861Z,0.8
2023-10-14T14:12:29.993Z,0.9
2023-10-14T14:13:40.112Z,1
2023-10-14T14:14:50.233Z,1.1
2023-10-14T14:16:00.366Z,1.1
2023-10-14T14:17:10.494Z,1
2023-10-14T14:18:20.611Z,1
2023-10-14T14:19:30.744Z,1.2
2023-10-14T14:20:40.856Z,1
2023-10-14T14:21:50.989Z,0.9
2023-10-14T14:23:01.102Z,1.1
2023-10-14T14:24:11.224Z,0.9
2023-10-14T14:25:21.356Z,1
2023-10-14T14:26:31.480Z,1.1
2023-10-14T14:27:40.626Z,0.9
2023-10-14T14:28:50.744Z,0.8
2023-10-14T14:30:00.872Z,0.9
2023-10-14T14:31:10.997Z,1
2023-10-14T14:32:21.121Z,0.9
2023-10-14T14:33:31.230Z,0.8
2023-10-14T14:34:41.363Z,1
2023-10-14T14:35:51.490Z,0.9
2023-10-14T14:37:01.614Z,0.8
2023-10-14T14:38:11.733Z,1
2023-10-14T14:39:21.866Z,1.1
2023-10-14T14:40:31.990Z,0.9
2023-10-14T14:41:42.109Z,1.1
2023-10-14T14:42:51.239Z,1.4
2023-10-14T14:44:01.380Z,1.1
2023-10-14T14:45:11.502Z,0.9
2023-10-14T14:46:21.613Z,1
2023-10-14T14:47:31.744Z,1
2023-10-14T14:48:41.863Z,1
2023-10-14T14:49:51.992Z,0.9
2023-10-14T14:51:02.116Z,0.9
2023-10-14T14:52:12.241Z,1
2023-10-14T14:53:22.361Z,1.2
2023-10-14T14:54:32.488Z,1.1
2023-10-14T14:55:42.619Z,1.2
2023-10-14T14:56:52.736Z,1
2023-10-14T14:58:01.878Z,0.9
2023-10-14T14:59:11.998Z,1
2023-10-14T15:00:22.120Z,1.2
2023-10-14T15:01:32.239Z,1
2023-10-14T15:02:42.371Z,0.9
2023-10-14T15:03:52.494Z,0.8
2023-10-14T15:05:02.630Z,1
2023-10-14T15:06:12.743Z,1.2
2023-10-14T15:07:22.874Z,1
2023-10-14T15:08:32.991Z,1
2023-10-14T15:09:43.125Z,0.8
2023-10-14T15:10:53.232Z,1.6
2023-10-14T15:12:03.373Z,1
2023-10-14T15:13:12.510Z,1.2
2023-10-14T15:14:22.632Z,1.1
2023-10-14T15:15:32.752Z,1.1
2023-10-14T15:16:42.884Z,1.1
2023-10-14T15:17:53.009Z,1
2023-10-14T15:19:03.115Z,1.1
2023-10-14T15:20:13.253Z,0.9
2023-10-14T15:21:23.374Z,1.1
2023-10-14T15:22:33.496Z,0.9
2023-10-14T15:23:43.613Z,1.1
2023-10-14T15:24:53.756Z,1.2
2023-10-14T15:26:03.873Z,1.1
2023-10-14T15:27:13.992Z,1
2023-10-14T15:28:23.138Z,1.1
2023-10-14T15:29:33.259Z,0.9
2023-10-14T15:30:43.392Z,1.2
2023-10-14T15:31:53.506Z,1.1
2023-10-14T15:33:03.634Z,1
2023-10-14T15:34:13.749Z,1
2023-10-14T15:35:23.871Z,1.1
2023-10-14T15:36:34.006Z,1.1
2023-10-14T15:37:44.117Z,1
2023-10-14T15:38:54.260Z,1
2023-10-14T15:40:04.376Z,1.1
2023-10-14T15:41:14.498Z,1.1
2023-10-14T15:42:24.619Z,1.2
2023-10-14T15:43:33.754Z,1
2023-10-14T15:44:43.883Z,1
2023-10-14T15:45:54.008Z,1.1
2023-10-14T15:47:04.134Z,1
2023-10-14T15:48:14.258Z,1.1
2023-10-14T15:49:24.377Z,1.2
2023-10-14T15:50:34.501Z,1.2
2023-10-14T15:51:44.639Z,1
2023-10-14T15:52:54.755Z,0.8
2023-10-14T15:54:04.887Z,1
2023-10-14T15:55:15.000Z,1.3
2023-10-14T15:56:25.136Z,1.1
2023-10-14T15:57:35.246Z,1
2023-10-14T15:58:44.398Z,1
2023-10-14T15:59:54.518Z,1.1
2023-10-14T16:01:04.632Z,1.2
2023-10-14T16:02:14.755Z,1.1
2023-10-14T16:03:24.894Z,1.1
2023-10-14T16:04:35.014Z,1
2023-10-14T16:05:45.147Z,0.9
2023-10-14T16:06:55.252Z,1.1
2023-10-14T16:08:05.393Z,1.4
2023-10-14T16:09:15.506Z,1.1
2023-10-14T16:10:25.626Z,1.1
2023-10-14T16:11:35.758Z,1.1
2023-10-14T16:12:45.881Z,1
2023-10-14T16:13:55.018Z,1
2023-10-14T16:15:05.142Z,1.1
2023-10-14T16:16:15.260Z,1